»·PEaware :: N520MP KPDX-KOTH

N520MP :: KPDX-KOTH

FLIGHT INFORMATION

Flight Status: Arrived
Operator: Privately registered:
United States
More flights under this callsign
Pilot: Manuel P. (9695)
Aircraft: BOMBARDIER BD-100 CHALLENGER 300
(CL30)
More flights by this aircraft type
Origin: KPDX Portland Intl
United States
Destination: KOTH North Bend Mun
United States
More flights between these airports :: More routes between these airports
Route: +PTLD1 UBG V287 OTH
File this flight plan on PilotEdge
Remarks:
Altitude:
(Current/Filed)
23,000ft
Speed:
(Current/Filed)
400kts
Departed: 27-Oct-17 02:50 PM
Arrived: 27-Oct-17 03:27 PM
Distance/Time
Traveled:
148nm/0:37
Distance/Time
To Go:
Arrived

Flight Plot

Page will automatically refresh every two minutes.

Flight plan parsing failed; only flown route is shown


Map Options




Map Legend


Flown Route
Filed Route
Departure Airport
Arrival Airport
Navaid (VOR, NDB)
Fix

Horizontal Profiles

Position Reports

Time Latitude Longitude Heading Altitude Ground
Speed
27-Oct-17 14:37 45.588429 -122.585495 209 35ft 0kts
27-Oct-17 14:38 45.588429 -122.585495 209 35ft 0kts
27-Oct-17 14:39 45.588429 -122.585495 209 35ft 0kts
27-Oct-17 14:40 45.588429 -122.585495 209 35ft 0kts
27-Oct-17 14:41 45.588429 -122.585495 209 35ft 0kts
27-Oct-17 14:42 45.588429 -122.585495 209 35ft 0kts
27-Oct-17 14:43 45.588429 -122.585495 209 35ft 0kts
27-Oct-17 14:44 45.588429 -122.585495 209 35ft 0kts
27-Oct-17 14:45 45.588429 -122.585495 209 35ft 0kts
27-Oct-17 14:46 45.588429 -122.585495 209 35ft 0kts
27-Oct-17 14:47 45.588429 -122.585495 209 35ft 0kts
27-Oct-17 14:48 45.588429 -122.585495 209 35ft 0kts
27-Oct-17 14:49 45.588315 -122.585973 298 36ft 4kts
27-Oct-17 14:50 45.589666 -122.586517 28 35ft 6kts
27-Oct-17 14:51 45.591344 -122.589969 297 36ft 15kts
27-Oct-17 14:52 45.593315 -122.595003 298 35ft 20kts
27-Oct-17 14:53 45.594368 -122.597418 351 35ft 0kts
27-Oct-17 14:54 45.594368 -122.597418 351 35ft 0kts
27-Oct-17 14:55 45.593272 -122.591631 118 36ft 100kts
27-Oct-17 14:56 45.566345 -122.530390 118 2654ft 218kts
27-Oct-17 14:57 45.534820 -122.458680 118 5078ft 219kts
27-Oct-17 14:58 45.503414 -122.387129 118 5982ft 216kts
27-Oct-17 14:59 45.472351 -122.316238 119 5984ft 214kts
27-Oct-17 15:00 45.440855 -122.246473 132 5965ft 204kts
27-Oct-17 15:01 45.406939 -122.298190 266 8458ft 232kts
27-Oct-17 15:02 45.400826 -122.386936 264 11019ft 253kts
27-Oct-17 15:03 45.391513 -122.505719 264 13702ft 360kts
27-Oct-17 15:04 45.379571 -122.655157 264 17150ft 397kts
27-Oct-17 15:05 45.366724 -122.815084 263 20102ft 419kts
27-Oct-17 15:06 45.329731 -122.969064 217 22117ft 426kts
27-Oct-17 15:07 45.238057 -123.045023 207 22124ft 362kts
27-Oct-17 15:08 45.146594 -123.107446 206 22129ft 368kts
27-Oct-17 15:09 45.053688 -123.167449 205 22108ft 368kts
27-Oct-17 15:10 44.960669 -123.226259 205 22101ft 368kts
27-Oct-17 15:11 44.868296 -123.284230 205 22102ft 368kts
27-Oct-17 15:12 44.775042 -123.342466 205 22102ft 368kts
27-Oct-17 15:13 44.683015 -123.399700 205 22091ft 350kts
27-Oct-17 15:14 44.585421 -123.460250 205 22113ft 416kts
27-Oct-17 15:15 44.477662 -123.526757 205 22099ft 421kts
27-Oct-17 15:16 44.379184 -123.587307 205 22084ft 350kts
27-Oct-17 15:17 44.297314 -123.637457 205 22086ft 297kts
27-Oct-17 15:18 44.223441 -123.682733 203 20442ft 315kts
27-Oct-17 15:19 44.141037 -123.732926 203 16510ft 333kts
27-Oct-17 15:20 44.058091 -123.783300 203 15990ft 319kts
27-Oct-17 15:21 43.977934 -123.831882 202 12979ft 314kts
27-Oct-17 15:22 43.900895 -123.878420 202 9464ft 291kts
27-Oct-17 15:23 43.831167 -123.920357 202 6273ft 270kts
27-Oct-17 15:24 43.765483 -123.959671 205 4990ft 243kts
27-Oct-17 15:25 43.701991 -123.998144 205 4965ft 272kts
27-Oct-17 15:26 43.636720 -124.036996 204 3975ft 221kts
27-Oct-17 15:27 43.588211 -124.075934 220 3799ft 195kts
27-Oct-17 15:28 43.547489 -124.128499 225 3059ft 198kts
27-Oct-17 15:29 43.503082 -124.170505 210 2041ft 202kts
27-Oct-17 15:30 43.458288 -124.204436 210 1459ft 168kts
27-Oct-17 15:31 43.424953 -124.235490 243 212ft 148kts
27-Oct-17 15:32 43.416473 -124.256087 200 23ft 7kts
27-Oct-17 15:33 43.416304 -124.253676 60 24ft 18kts
27-Oct-17 15:34 43.418351 -124.248750 60 23ft 18kts
27-Oct-17 15:35 43.417900 -124.246899 157 24ft 7kts
27-Oct-17 15:36 43.415594 -124.245599 234 24ft 0kts
27-Oct-17 15:37 43.415594 -124.245599 234 24ft 0kts

Navigation Log

Ident Type
Flight plan parsing failed, navigation log unavailable